sensor_id;sensor_type;location;lat;lon;timestamp;P1;durP1;ratioP1;P2;durP2;ratioP2
70122;SDS011;57489;37.404;24.920;2024-03-08T00:02:50;5.20;;;3.87;;
70122;SDS011;57489;37.404;24.920;2024-03-08T00:07:52;7.33;;;5.17;;
70122;SDS011;57489;37.404;24.920;2024-03-08T00:12:56;5.60;;;4.15;;
70122;SDS011;57489;37.404;24.920;2024-03-08T00:17:59;5.70;;;4.13;;
70122;SDS011;57489;37.404;24.920;2024-03-08T00:23:01;5.32;;;3.88;;
70122;SDS011;57489;37.404;24.920;2024-03-08T00:28:05;5.60;;;3.90;;
70122;SDS011;57489;37.404;24.920;2024-03-08T00:33:07;5.27;;;3.50;;
70122;SDS011;57489;37.404;24.920;2024-03-08T00:38:09;4.93;;;3.88;;
70122;SDS011;57489;37.404;24.920;2024-03-08T00:43:14;5.43;;;4.15;;
70122;SDS011;57489;37.404;24.920;2024-03-08T00:48:17;6.03;;;4.33;;
70122;SDS011;57489;37.404;24.920;2024-03-08T00:53:19;5.35;;;4.13;;
70122;SDS011;57489;37.404;24.920;2024-03-08T00:58:22;5.10;;;3.53;;
70122;SDS011;57489;37.404;24.920;2024-03-08T01:03:25;5.77;;;3.53;;
70122;SDS011;57489;37.404;24.920;2024-03-08T01:08:27;5.13;;;3.47;;
70122;SDS011;57489;37.404;24.920;2024-03-08T01:13:30;4.37;;;2.87;;
70122;SDS011;57489;37.404;24.920;2024-03-08T01:18:33;4.57;;;3.20;;
70122;SDS011;57489;37.404;24.920;2024-03-08T01:23:35;4.85;;;3.97;;
70122;SDS011;57489;37.404;24.920;2024-03-08T01:28:39;4.10;;;2.80;;
70122;SDS011;57489;37.404;24.920;2024-03-08T01:33:41;5.88;;;3.83;;
70122;SDS011;57489;37.404;24.920;2024-03-08T01:38:44;7.60;;;3.72;;
70122;SDS011;57489;37.404;24.920;2024-03-08T01:43:47;5.67;;;3.70;;
70122;SDS011;57489;37.404;24.920;2024-03-08T01:48:50;4.95;;;3.55;;
70122;SDS011;57489;37.404;24.920;2024-03-08T01:53:52;5.73;;;4.07;;
70122;SDS011;57489;37.404;24.920;2024-03-08T01:58:59;4.30;;;2.73;;
70122;SDS011;57489;37.404;24.920;2024-03-08T02:04:01;16.05;;;2.72;;
70122;SDS011;57489;37.404;24.920;2024-03-08T02:09:06;7.07;;;3.23;;
70122;SDS011;57489;37.404;24.920;2024-03-08T02:14:10;4.43;;;3.10;;
70122;SDS011;57489;37.404;24.920;2024-03-08T02:19:12;4.07;;;2.72;;
70122;SDS011;57489;37.404;24.920;2024-03-08T02:24:16;4.87;;;3.27;;
70122;SDS011;57489;37.404;24.920;2024-03-08T02:29:18;4.97;;;3.17;;
70122;SDS011;57489;37.404;24.920;2024-03-08T02:34:21;6.07;;;4.10;;
70122;SDS011;57489;37.404;24.920;2024-03-08T02:39:24;3.97;;;2.45;;
70122;SDS011;57489;37.404;24.920;2024-03-08T02:44:28;5.47;;;2.92;;
70122;SDS011;57489;37.404;24.920;2024-03-08T02:49:30;4.33;;;2.97;;
70122;SDS011;57489;37.404;24.920;2024-03-08T02:54:33;5.07;;;3.60;;
70122;SDS011;57489;37.404;24.920;2024-03-08T02:59:37;3.70;;;2.55;;
70122;SDS011;57489;37.404;24.920;2024-03-08T03:04:40;3.93;;;2.50;;
70122;SDS011;57489;37.404;24.920;2024-03-08T03:09:44;4.53;;;3.05;;
70122;SDS011;57489;37.404;24.920;2024-03-08T03:14:47;4.27;;;2.73;;
70122;SDS011;57489;37.404;24.920;2024-03-08T03:19:49;3.77;;;2.27;;
70122;SDS011;57489;37.404;24.920;2024-03-08T03:24:53;3.97;;;2.67;;
70122;SDS011;57489;37.404;24.920;2024-03-08T03:29:58;4.53;;;2.97;;
70122;SDS011;57489;37.404;24.920;2024-03-08T03:35:20;3.17;;;2.22;;
70122;SDS011;57489;37.404;24.920;2024-03-08T03:40:24;3.17;;;2.05;;
70122;SDS011;57489;37.404;24.920;2024-03-08T03:45:26;3.50;;;2.47;;
70122;SDS011;57489;37.404;24.920;2024-03-08T03:50:28;6.15;;;2.80;;
70122;SDS011;57489;37.404;24.920;2024-03-08T03:55:32;3.13;;;2.20;;
70122;SDS011;57489;37.404;24.920;2024-03-08T04:00:34;3.77;;;2.43;;
70122;SDS011;57489;37.404;24.920;2024-03-08T04:05:36;3.22;;;1.88;;
70122;SDS011;57489;37.404;24.920;2024-03-08T04:10:40;3.53;;;2.37;;
70122;SDS011;57489;37.404;24.920;2024-03-08T04:15:43;3.95;;;2.42;;
70122;SDS011;57489;37.404;24.920;2024-03-08T04:20:45;3.78;;;2.20;;
70122;SDS011;57489;37.404;24.920;2024-03-08T04:25:49;4.40;;;2.20;;
70122;SDS011;57489;37.404;24.920;2024-03-08T04:30:51;3.10;;;2.25;;
70122;SDS011;57489;37.404;24.920;2024-03-08T04:35:55;3.80;;;1.87;;
70122;SDS011;57489;37.404;24.920;2024-03-08T04:40:59;5.63;;;2.85;;
70122;SDS011;57489;37.404;24.920;2024-03-08T04:46:03;3.38;;;2.28;;
70122;SDS011;57489;37.404;24.920;2024-03-08T04:51:06;4.57;;;2.50;;
70122;SDS011;57489;37.404;24.920;2024-03-08T04:56:09;3.53;;;2.38;;
70122;SDS011;57489;37.404;24.920;2024-03-08T05:01:12;3.43;;;2.33;;
70122;SDS011;57489;37.404;24.920;2024-03-08T05:06:14;2.40;;;1.67;;
70122;SDS011;57489;37.404;24.920;2024-03-08T05:11:18;2.88;;;1.98;;
70122;SDS011;57489;37.404;24.920;2024-03-08T05:16:20;3.17;;;2.20;;
70122;SDS011;57489;37.404;24.920;2024-03-08T05:21:26;3.90;;;2.28;;
70122;SDS011;57489;37.404;24.920;2024-03-08T05:26:30;2.85;;;1.92;;
70122;SDS011;57489;37.404;24.920;2024-03-08T05:31:35;3.03;;;2.10;;
70122;SDS011;57489;37.404;24.920;2024-03-08T05:36:44;4.00;;;3.15;;
70122;SDS011;57489;37.404;24.920;2024-03-08T05:41:48;4.10;;;2.50;;
70122;SDS011;57489;37.404;24.920;2024-03-08T05:46:50;3.95;;;1.92;;
70122;SDS011;57489;37.404;24.920;2024-03-08T05:51:52;3.85;;;2.25;;
70122;SDS011;57489;37.404;24.920;2024-03-08T05:56:56;10.73;;;2.50;;
70122;SDS011;57489;37.404;24.920;2024-03-08T06:01:58;3.83;;;2.55;;
70122;SDS011;57489;37.404;24.920;2024-03-08T06:07:00;3.38;;;1.83;;
70122;SDS011;57489;37.404;24.920;2024-03-08T06:12:05;5.47;;;2.50;;
70122;SDS011;57489;37.404;24.920;2024-03-08T06:17:09;3.40;;;2.30;;
70122;SDS011;57489;37.404;24.920;2024-03-08T06:22:12;4.30;;;2.97;;
70122;SDS011;57489;37.404;24.920;2024-03-08T06:27:15;3.42;;;2.42;;
70122;SDS011;57489;37.404;24.920;2024-03-08T06:32:17;4.85;;;2.75;;
70122;SDS011;57489;37.404;24.920;2024-03-08T06:37:19;3.77;;;2.33;;
70122;SDS011;57489;37.404;24.920;2024-03-08T06:42:25;3.10;;;2.15;;
70122;SDS011;57489;37.404;24.920;2024-03-08T06:47:27;5.10;;;3.33;;
70122;SDS011;57489;37.404;24.920;2024-03-08T06:52:30;4.93;;;2.37;;
70122;SDS011;57489;37.404;24.920;2024-03-08T06:57:34;5.97;;;3.42;;
70122;SDS011;57489;37.404;24.920;2024-03-08T07:02:36;3.63;;;2.03;;
70122;SDS011;57489;37.404;24.920;2024-03-08T07:07:42;6.00;;;2.87;;
70122;SDS011;57489;37.404;24.920;2024-03-08T07:12:46;6.43;;;3.20;;
70122;SDS011;57489;37.404;24.920;2024-03-08T07:17:48;7.57;;;3.37;;
70122;SDS011;57489;37.404;24.920;2024-03-08T07:22:52;12.70;;;3.53;;
70122;SDS011;57489;37.404;24.920;2024-03-08T07:27:56;3.85;;;2.83;;
70122;SDS011;57489;37.404;24.920;2024-03-08T07:32:58;4.90;;;2.73;;
70122;SDS011;57489;37.404;24.920;2024-03-08T07:38:03;6.57;;;2.70;;
70122;SDS011;57489;37.404;24.920;2024-03-08T07:43:07;6.53;;;3.58;;
70122;SDS011;57489;37.404;24.920;2024-03-08T07:48:09;6.43;;;3.57;;
70122;SDS011;57489;37.404;24.920;2024-03-08T07:53:11;6.33;;;3.77;;
70122;SDS011;57489;37.404;24.920;2024-03-08T07:58:15;6.65;;;3.72;;
70122;SDS011;57489;37.404;24.920;2024-03-08T08:03:17;11.70;;;5.37;;
70122;SDS011;57489;37.404;24.920;2024-03-08T08:08:21;4.63;;;2.73;;
70122;SDS011;57489;37.404;24.920;2024-03-08T08:13:24;14.52;;;4.25;;
70122;SDS011;57489;37.404;24.920;2024-03-08T08:18:28;10.20;;;2.50;;
70122;SDS011;57489;37.404;24.920;2024-03-08T08:23:30;5.67;;;2.63;;
70122;SDS011;57489;37.404;24.920;2024-03-08T08:28:33;18.05;;;4.25;;
70122;SDS011;57489;37.404;24.920;2024-03-08T08:33:36;6.93;;;2.67;;
70122;SDS011;57489;37.404;24.920;2024-03-08T08:38:38;8.07;;;3.77;;
70122;SDS011;57489;37.404;24.920;2024-03-08T08:43:41;7.05;;;2.45;;
70122;SDS011;57489;37.404;24.920;2024-03-08T08:48:44;4.60;;;2.53;;
70122;SDS011;57489;37.404;24.920;2024-03-08T08:53:47;5.83;;;2.40;;
70122;SDS011;57489;37.404;24.920;2024-03-08T08:58:50;6.80;;;3.10;;
70122;SDS011;57489;37.404;24.920;2024-03-08T09:03:53;6.50;;;2.72;;
70122;SDS011;57489;37.404;24.920;2024-03-08T09:08:55;5.27;;;3.17;;
70122;SDS011;57489;37.404;24.920;2024-03-08T09:13:59;5.88;;;3.10;;
70122;SDS011;57489;37.404;24.920;2024-03-08T09:19:02;9.27;;;3.87;;
70122;SDS011;57489;37.404;24.920;2024-03-08T09:24:06;10.97;;;3.37;;
70122;SDS011;57489;37.404;24.920;2024-03-08T09:29:10;17.98;;;3.85;;
70122;SDS011;57489;37.404;24.920;2024-03-08T09:34:12;3.67;;;2.50;;
70122;SDS011;57489;37.404;24.920;2024-03-08T09:39:14;4.53;;;1.70;;
70122;SDS011;57489;37.404;24.920;2024-03-08T09:44:18;10.80;;;3.60;;
70122;SDS011;57489;37.404;24.920;2024-03-08T09:49:21;4.90;;;1.90;;
70122;SDS011;57489;37.404;24.920;2024-03-08T09:54:23;2.73;;;1.83;;
70122;SDS011;57489;37.404;24.920;2024-03-08T09:59:28;3.85;;;2.67;;
70122;SDS011;57489;37.404;24.920;2024-03-08T10:04:47;3.83;;;2.43;;
70122;SDS011;57489;37.404;24.920;2024-03-08T10:09:51;4.70;;;2.33;;
70122;SDS011;57489;37.404;24.920;2024-03-08T10:14:56;4.28;;;2.03;;
70122;SDS011;57489;37.404;24.920;2024-03-08T10:20:00;9.57;;;2.40;;
70122;SDS011;57489;37.404;24.920;2024-03-08T10:25:05;3.67;;;2.23;;
70122;SDS011;57489;37.404;24.920;2024-03-08T10:30:10;5.45;;;1.92;;
70122;SDS011;57489;37.404;24.920;2024-03-08T10:35:16;4.47;;;2.13;;
70122;SDS011;57489;37.404;24.920;2024-03-08T10:40:19;5.67;;;2.37;;
70122;SDS011;57489;37.404;24.920;2024-03-08T10:45:26;8.52;;;2.55;;
70122;SDS011;57489;37.404;24.920;2024-03-08T10:50:36;3.53;;;1.87;;
70122;SDS011;57489;37.404;24.920;2024-03-08T10:55:40;2.07;;;1.20;;
70122;SDS011;57489;37.404;24.920;2024-03-08T11:00:43;4.88;;;2.00;;
70122;SDS011;57489;37.404;24.920;2024-03-08T11:05:46;3.27;;;1.47;;
70122;SDS011;57489;37.404;24.920;2024-03-08T11:10:49;5.73;;;1.63;;
70122;SDS011;57489;37.404;24.920;2024-03-08T11:15:55;2.83;;;1.83;;
70122;SDS011;57489;37.404;24.920;2024-03-08T11:20:57;5.17;;;1.80;;
70122;SDS011;57489;37.404;24.920;2024-03-08T11:25:59;3.37;;;1.80;;
70122;SDS011;57489;37.404;24.920;2024-03-08T11:31:25;2.83;;;1.83;;
70122;SDS011;57489;37.404;24.920;2024-03-08T11:36:28;6.00;;;2.17;;
70122;SDS011;57489;37.404;24.920;2024-03-08T11:41:32;3.13;;;1.50;;
70122;SDS011;57489;37.404;24.920;2024-03-08T11:46:36;3.00;;;1.85;;
70122;SDS011;57489;37.404;24.920;2024-03-08T11:51:40;2.93;;;1.60;;
70122;SDS011;57489;37.404;24.920;2024-03-08T11:56:43;2.45;;;1.15;;
70122;SDS011;57489;37.404;24.920;2024-03-08T12:01:59;2.42;;;1.52;;
70122;SDS011;57489;37.404;24.920;2024-03-08T12:07:03;3.27;;;1.97;;
70122;SDS011;57489;37.404;24.920;2024-03-08T12:12:09;2.95;;;1.55;;
70122;SDS011;57489;37.404;24.920;2024-03-08T12:17:13;3.72;;;2.13;;
70122;SDS011;57489;37.404;24.920;2024-03-08T12:22:15;3.23;;;1.43;;
70122;SDS011;57489;37.404;24.920;2024-03-08T12:27:18;4.53;;;2.38;;
70122;SDS011;57489;37.404;24.920;2024-03-08T12:32:22;6.22;;;2.20;;
70122;SDS011;57489;37.404;24.920;2024-03-08T12:37:29;3.73;;;1.37;;
70122;SDS011;57489;37.404;24.920;2024-03-08T12:42:32;2.97;;;2.03;;
70122;SDS011;57489;37.404;24.920;2024-03-08T12:47:36;3.03;;;2.07;;
70122;SDS011;57489;37.404;24.920;2024-03-08T12:52:39;2.60;;;1.30;;
70122;SDS011;57489;37.404;24.920;2024-03-08T12:57:41;4.45;;;1.80;;
70122;SDS011;57489;37.404;24.920;2024-03-08T13:02:45;2.37;;;1.53;;
70122;SDS011;57489;37.404;24.920;2024-03-08T13:07:48;2.63;;;1.63;;
70122;SDS011;57489;37.404;24.920;2024-03-08T13:12:50;3.88;;;2.00;;
70122;SDS011;57489;37.404;24.920;2024-03-08T13:17:55;2.07;;;1.50;;
70122;SDS011;57489;37.404;24.920;2024-03-08T13:23:00;2.47;;;1.73;;
70122;SDS011;57489;37.404;24.920;2024-03-08T13:28:02;2.63;;;1.92;;
70122;SDS011;57489;37.404;24.920;2024-03-08T13:33:07;2.53;;;1.30;;
70122;SDS011;57489;37.404;24.920;2024-03-08T13:38:09;1.80;;;1.00;;
70122;SDS011;57489;37.404;24.920;2024-03-08T13:43:13;3.40;;;1.58;;
70122;SDS011;57489;37.404;24.920;2024-03-08T13:48:18;5.20;;;2.03;;
70122;SDS011;57489;37.404;24.920;2024-03-08T13:53:22;2.10;;;1.35;;
70122;SDS011;57489;37.404;24.920;2024-03-08T13:58:24;1.92;;;1.20;;
70122;SDS011;57489;37.404;24.920;2024-03-08T14:03:28;2.57;;;1.30;;
70122;SDS011;57489;37.404;24.920;2024-03-08T14:08:30;2.03;;;1.42;;
70122;SDS011;57489;37.404;24.920;2024-03-08T14:13:33;2.17;;;1.23;;
70122;SDS011;57489;37.404;24.920;2024-03-08T14:18:37;5.20;;;1.87;;
70122;SDS011;57489;37.404;24.920;2024-03-08T14:23:41;4.28;;;1.80;;
70122;SDS011;57489;37.404;24.920;2024-03-08T14:28:43;7.43;;;2.30;;
70122;SDS011;57489;37.404;24.920;2024-03-08T14:33:47;2.17;;;1.40;;
70122;SDS011;57489;37.404;24.920;2024-03-08T14:38:50;3.13;;;1.98;;
70122;SDS011;57489;37.404;24.920;2024-03-08T14:43:53;2.70;;;1.60;;
70122;SDS011;57489;37.404;24.920;2024-03-08T14:48:58;2.58;;;1.45;;
70122;SDS011;57489;37.404;24.920;2024-03-08T14:54:01;2.28;;;1.15;;
70122;SDS011;57489;37.404;24.920;2024-03-08T14:59:06;3.63;;;1.73;;
70122;SDS011;57489;37.404;24.920;2024-03-08T15:04:10;7.50;;;1.83;;
70122;SDS011;57489;37.404;24.920;2024-03-08T15:09:12;1.95;;;1.35;;
70122;SDS011;57489;37.404;24.920;2024-03-08T15:14:17;2.30;;;1.50;;
70122;SDS011;57489;37.404;24.920;2024-03-08T15:19:22;2.97;;;1.60;;
70122;SDS011;57489;37.404;24.920;2024-03-08T15:24:25;3.97;;;1.80;;
70122;SDS011;57489;37.404;24.920;2024-03-08T15:29:28;2.60;;;1.60;;
70122;SDS011;57489;37.404;24.920;2024-03-08T15:34:33;2.38;;;1.70;;
70122;SDS011;57489;37.404;24.920;2024-03-08T15:39:38;2.80;;;2.10;;
70122;SDS011;57489;37.404;24.920;2024-03-08T15:44:41;2.80;;;2.10;;
70122;SDS011;57489;37.404;24.920;2024-03-08T15:49:45;2.60;;;1.70;;
70122;SDS011;57489;37.404;24.920;2024-03-08T16:06:55;1.70;;;1.13;;
70122;SDS011;57489;37.404;24.920;2024-03-08T16:11:57;5.20;;;2.80;;
70122;SDS011;57489;37.404;24.920;2024-03-08T16:16:59;3.47;;;2.17;;
70122;SDS011;57489;37.404;24.920;2024-03-08T16:22:04;5.55;;;2.20;;
70122;SDS011;57489;37.404;24.920;2024-03-08T16:27:06;3.07;;;1.80;;
70122;SDS011;57489;37.404;24.920;2024-03-08T16:32:08;4.93;;;2.13;;
70122;SDS011;57489;37.404;24.920;2024-03-08T16:37:12;2.43;;;1.73;;
70122;SDS011;57489;37.404;24.920;2024-03-08T16:42:14;4.20;;;1.90;;
70122;SDS011;57489;37.404;24.920;2024-03-08T16:47:16;4.35;;;2.17;;
70122;SDS011;57489;37.404;24.920;2024-03-08T16:52:20;3.33;;;2.20;;
70122;SDS011;57489;37.404;24.920;2024-03-08T16:57:23;8.48;;;2.00;;
70122;SDS011;57489;37.404;24.920;2024-03-08T17:02:25;2.40;;;1.52;;
70122;SDS011;57489;37.404;24.920;2024-03-08T17:07:29;3.50;;;2.40;;
70122;SDS011;57489;37.404;24.920;2024-03-08T17:12:32;7.55;;;4.38;;
70122;SDS011;57489;37.404;24.920;2024-03-08T17:17:39;6.25;;;4.00;;
70122;SDS011;57489;37.404;24.920;2024-03-08T17:22:43;7.17;;;4.83;;
70122;SDS011;57489;37.404;24.920;2024-03-08T17:27:45;5.95;;;4.30;;
70122;SDS011;57489;37.404;24.920;2024-03-08T17:32:53;9.93;;;4.20;;
70122;SDS011;57489;37.404;24.920;2024-03-08T17:37:58;8.00;;;4.95;;
70122;SDS011;57489;37.404;24.920;2024-03-08T17:43:00;10.52;;;6.13;;
70122;SDS011;57489;37.404;24.920;2024-03-08T17:48:07;11.53;;;5.87;;
70122;SDS011;57489;37.404;24.920;2024-03-08T17:53:13;8.38;;;5.90;;
70122;SDS011;57489;37.404;24.920;2024-03-08T17:58:15;8.25;;;5.45;;
70122;SDS011;57489;37.404;24.920;2024-03-08T18:03:18;7.97;;;5.97;;
70122;SDS011;57489;37.404;24.920;2024-03-08T18:08:22;8.88;;;5.68;;
70122;SDS011;57489;37.404;24.920;2024-03-08T18:13:24;6.63;;;4.77;;
70122;SDS011;57489;37.404;24.920;2024-03-08T18:18:26;6.10;;;4.40;;
70122;SDS011;57489;37.404;24.920;2024-03-08T18:23:30;9.07;;;6.07;;
70122;SDS011;57489;37.404;24.920;2024-03-08T18:28:33;11.67;;;5.53;;
70122;SDS011;57489;37.404;24.920;2024-03-08T18:33:38;9.00;;;5.90;;
70122;SDS011;57489;37.404;24.920;2024-03-08T18:38:46;12.77;;;8.57;;
70122;SDS011;57489;37.404;24.920;2024-03-08T18:43:49;13.80;;;7.20;;
70122;SDS011;57489;37.404;24.920;2024-03-08T18:48:51;16.90;;;8.02;;
70122;SDS011;57489;37.404;24.920;2024-03-08T18:53:54;13.57;;;8.63;;
70122;SDS011;57489;37.404;24.920;2024-03-08T18:58:57;10.10;;;7.23;;
70122;SDS011;57489;37.404;24.920;2024-03-08T19:03:59;12.45;;;6.65;;
70122;SDS011;57489;37.404;24.920;2024-03-08T19:09:02;16.30;;;6.93;;
70122;SDS011;57489;37.404;24.920;2024-03-08T19:14:09;12.43;;;6.23;;
70122;SDS011;57489;37.404;24.920;2024-03-08T19:19:12;12.40;;;7.32;;
70122;SDS011;57489;37.404;24.920;2024-03-08T19:24:15;13.20;;;7.67;;
70122;SDS011;57489;37.404;24.920;2024-03-08T19:29:17;12.50;;;6.20;;
70122;SDS011;57489;37.404;24.920;2024-03-08T19:34:26;9.70;;;5.40;;
70122;SDS011;57489;37.404;24.920;2024-03-08T19:39:30;12.43;;;6.77;;
70122;SDS011;57489;37.404;24.920;2024-03-08T19:44:32;10.00;;;5.97;;
70122;SDS011;57489;37.404;24.920;2024-03-08T19:49:34;9.07;;;5.82;;
70122;SDS011;57489;37.404;24.920;2024-03-08T19:54:38;12.40;;;5.43;;
70122;SDS011;57489;37.404;24.920;2024-03-08T19:59:40;9.43;;;5.85;;
70122;SDS011;57489;37.404;24.920;2024-03-08T20:04:45;6.53;;;5.00;;
70122;SDS011;57489;37.404;24.920;2024-03-08T20:09:48;8.23;;;5.13;;
70122;SDS011;57489;37.404;24.920;2024-03-08T20:14:51;8.57;;;5.57;;
70122;SDS011;57489;37.404;24.920;2024-03-08T20:19:53;10.07;;;5.13;;
70122;SDS011;57489;37.404;24.920;2024-03-08T20:24:57;10.32;;;4.88;;
70122;SDS011;57489;37.404;24.920;2024-03-08T20:29:59;10.40;;;5.57;;
70122;SDS011;57489;37.404;24.920;2024-03-08T20:35:02;7.43;;;4.77;;
70122;SDS011;57489;37.404;24.920;2024-03-08T20:40:07;10.00;;;5.40;;
70122;SDS011;57489;37.404;24.920;2024-03-08T20:45:11;11.30;;;5.03;;
70122;SDS011;57489;37.404;24.920;2024-03-08T20:50:15;8.23;;;4.83;;
70122;SDS011;57489;37.404;24.920;2024-03-08T20:55:20;12.65;;;6.28;;
70122;SDS011;57489;37.404;24.920;2024-03-08T21:00:24;10.43;;;6.07;;
70122;SDS011;57489;37.404;24.920;2024-03-08T21:05:42;7.97;;;4.67;;
70122;SDS011;57489;37.404;24.920;2024-03-08T21:10:48;7.88;;;4.38;;
70122;SDS011;57489;37.404;24.920;2024-03-08T21:15:51;11.57;;;5.87;;
70122;SDS011;57489;37.404;24.920;2024-03-08T21:20:54;7.15;;;4.90;;
70122;SDS011;57489;37.404;24.920;2024-03-08T21:25:57;7.10;;;4.47;;
70122;SDS011;57489;37.404;24.920;2024-03-08T21:31:01;7.27;;;3.90;;
70122;SDS011;57489;37.404;24.920;2024-03-08T21:36:06;7.78;;;4.72;;
70122;SDS011;57489;37.404;24.920;2024-03-08T21:41:10;6.80;;;4.22;;
70122;SDS011;57489;37.404;24.920;2024-03-08T21:46:12;7.00;;;4.43;;
70122;SDS011;57489;37.404;24.920;2024-03-08T21:51:15;6.40;;;4.82;;
70122;SDS011;57489;37.404;24.920;2024-03-08T21:56:19;8.30;;;5.33;;
70122;SDS011;57489;37.404;24.920;2024-03-08T22:01:21;7.78;;;3.90;;
70122;SDS011;57489;37.404;24.920;2024-03-08T22:06:23;7.88;;;5.00;;
70122;SDS011;57489;37.404;24.920;2024-03-08T22:11:31;6.13;;;3.13;;
70122;SDS011;57489;37.404;24.920;2024-03-08T22:16:33;6.72;;;4.50;;
70122;SDS011;57489;37.404;24.920;2024-03-08T22:21:39;5.30;;;3.38;;
70122;SDS011;57489;37.404;24.920;2024-03-08T22:26:43;5.03;;;3.53;;
70122;SDS011;57489;37.404;24.920;2024-03-08T22:31:45;6.70;;;3.70;;
70122;SDS011;57489;37.404;24.920;2024-03-08T22:36:49;8.50;;;4.10;;
70122;SDS011;57489;37.404;24.920;2024-03-08T22:41:53;7.63;;;5.27;;
70122;SDS011;57489;37.404;24.920;2024-03-08T22:46:55;7.40;;;4.47;;
70122;SDS011;57489;37.404;24.920;2024-03-08T22:51:58;6.37;;;3.87;;
70122;SDS011;57489;37.404;24.920;2024-03-08T22:57:02;5.87;;;3.73;;
70122;SDS011;57489;37.404;24.920;2024-03-08T23:02:08;5.85;;;3.92;;
70122;SDS011;57489;37.404;24.920;2024-03-08T23:07:10;5.20;;;2.80;;
70122;SDS011;57489;37.404;24.920;2024-03-08T23:12:14;3.75;;;2.33;;
70122;SDS011;57489;37.404;24.920;2024-03-08T23:17:17;5.40;;;3.00;;
70122;SDS011;57489;37.404;24.920;2024-03-08T23:22:19;5.57;;;3.77;;
70122;SDS011;57489;37.404;24.920;2024-03-08T23:27:23;4.63;;;3.28;;
70122;SDS011;57489;37.404;24.920;2024-03-08T23:32:25;4.82;;;2.90;;
70122;SDS011;57489;37.404;24.920;2024-03-08T23:37:28;4.03;;;3.20;;
70122;SDS011;57489;37.404;24.920;2024-03-08T23:42:31;4.85;;;3.58;;
70122;SDS011;57489;37.404;24.920;2024-03-08T23:47:33;5.30;;;3.10;;
70122;SDS011;57489;37.404;24.920;2024-03-08T23:52:36;4.63;;;2.90;;
70122;SDS011;57489;37.404;24.920;2024-03-08T23:57:44;5.13;;;2.63;;
